Time;durP1;ratioP1;P1;durP2;ratioP2;P2;SDS_P1;SDS_P2;PMS_P1;PMS_P2;Temp;Humidity;BMP_temperature;BMP_pressure;BME280_temperature;BME280_humidity;BME280_pressure;Samples;Min_cycle;Max_cycle;Signal;HPM_P1;HPM_P2
2022/08/02 00:00:54;;;;;;;2.77;2.35;;;;;;;13.97;81.93;95600.89;1706442;84;20999;-65
2022/08/02 00:03:21;;;;;;;2.25;1.90;;;;;;;13.89;82.15;95606.91;1706696;84;21023;-65
2022/08/02 00:05:48;;;;;;;1.90;1.80;;;;;;;13.89;82.48;95602.93;1737653;82;20994;-65
2022/08/02 00:08:15;;;;;;;2.65;2.12;;;;;;;13.94;82.43;95601.00;1706914;84;20987;-65
2022/08/02 00:10:41;;;;;;;2.72;2.30;;;;;;;13.77;82.30;95607.28;1737422;82;21014;-65
2022/08/02 00:13:08;;;;;;;3.58;2.30;;;;;;;13.71;82.43;95602.16;1706577;84;21046;-65
2022/08/02 00:15:35;;;;;;;2.83;2.10;;;;;;;13.72;82.46;95606.09;1706608;84;21489;-65
2022/08/02 00:18:02;;;;;;;2.20;2.00;;;;;;;13.73;82.95;95601.19;1737587;82;21543;-65
2022/08/02 00:20:28;;;;;;;2.55;2.08;;;;;;;13.68;83.31;95596.95;1706883;84;21022;-65
2022/08/02 00:22:55;;;;;;;2.75;2.17;;;;;;;13.59;82.50;95594.14;1737457;83;21034;-65
2022/08/02 00:25:22;;;;;;;2.72;2.05;;;;;;;13.60;83.75;95592.74;1706826;83;21478;-65
2022/08/02 00:27:49;;;;;;;3.77;1.95;;;;;;;13.62;83.55;95596.69;1706647;84;21512;-65
2022/08/02 00:30:15;;;;;;;2.62;2.30;;;;;;;13.63;83.40;95591.35;1737683;83;21082;-65
2022/08/02 00:32:42;;;;;;;3.27;2.10;;;;;;;13.61;83.75;95587.87;1706832;83;21046;-65
2022/08/02 00:35:09;;;;;;;3.02;2.25;;;;;;;13.57;83.07;95591.98;1706769;84;21477;-65
2022/08/02 00:37:41;;;;;;;6.05;2.20;;;;;;;13.55;83.17;95588.50;1737512;82;20982;-65
2022/08/02 00:40:10;;;;;;;3.25;2.20;;;;;;;13.50;83.55;95588.64;1706792;84;20999;-65
2022/08/02 00:42:38;;;;;;;2.95;1.98;;;;;;;13.58;83.63;95587.08;1737505;83;21531;-65
2022/08/02 00:45:06;;;;;;;5.55;2.08;;;;;;;13.49;82.28;95590.03;1706395;84;21003;-65
2022/08/02 00:47:32;;;;;;;2.58;1.87;;;;;;;13.39;82.80;95587.64;1737539;83;20959;-65
2022/08/02 00:49:59;;;;;;;3.52;1.90;;;;;;;13.28;82.34;95590.19;1706710;83;21026;-65
2022/08/02 00:52:26;;;;;;;2.50;1.70;;;;;;;13.23;83.38;95586.77;1706885;84;21472;-65
2022/08/02 00:54:53;;;;;;;2.65;1.87;;;;;;;13.26;83.28;95592.87;1706493;83;21078;-65
2022/08/02 00:57:19;;;;;;;2.22;2.02;;;;;;;13.24;83.10;95589.39;1700209;84;21517;-65
2022/08/02 00:59:47;;;;;;;2.45;2.05;;;;;;;13.20;83.86;95594.35;1716100;83;21099;-65
2022/08/02 01:02:14;;;;;;;3.85;2.27;;;;;;;13.27;83.93;95595.08;1716419;83;21039;-65
2022/08/02 01:04:41;;;;;;;2.10;1.90;;;;;;;13.29;83.46;95595.91;1716283;83;21035;-65
2022/08/02 01:07:08;;;;;;;3.12;2.40;;;;;;;13.31;83.32;95590.13;1716449;83;21011;-65
2022/08/02 01:09:34;;;;;;;3.33;2.37;;;;;;;13.40;83.16;95594.66;1716358;84;21482;-65
2022/08/02 01:12:01;;;;;;;2.85;2.20;;;;;;;13.41;82.81;95591.59;1716241;83;21035;-65
2022/08/02 01:14:28;;;;;;;2.25;1.98;;;;;;;13.21;82.27;95590.80;1716642;83;21042;-65
2022/08/02 01:17:09;;;;;;;5.47;2.02;;;;;;;13.07;82.00;95592.97;1716346;83;21015;-65
2022/08/02 01:19:50;;;;;;;2.10;1.90;;;;;;;12.95;82.50;95592.85;1716665;83;21484;-65
2022/08/02 01:22:43;;;;;;;2.40;2.20;;;;;;;12.96;83.61;95591.50;1716563;83;21023;-65
2022/08/02 01:25:48;;;;;;;2.70;2.50;;;;;;;12.97;83.26;95589.71;1686541;84;21505;-65
2022/08/02 01:28:36;;;;;;;3.12;2.47;;;;;;;13.05;82.77;95591.67;1716279;83;20992;-65
2022/08/02 01:31:11;;;;;;;5.50;2.10;;;;;;;13.09;83.04;95587.18;1715711;84;21039;-65
2022/08/02 01:33:55;;;;;;;2.67;2.25;;;;;;;13.04;82.43;95583.80;1716461;83;21055;-65
2022/08/02 01:36:26;;;;;;;2.92;2.30;;;;;;;13.05;82.91;95591.67;1716651;84;21031;-65
2022/08/02 01:38:55;;;;;;;3.52;2.12;;;;;;;13.01;83.28;95589.19;1716504;83;21028;-65
2022/08/02 01:41:25;;;;;;;2.30;2.10;;;;;;;13.02;82.82;95592.23;1716256;83;21011;-65
2022/08/02 01:43:56;;;;;;;2.30;2.10;;;;;;;12.92;82.64;95595.13;1716354;83;20983;-65
2022/08/02 01:46:25;;;;;;;2.33;1.92;;;;;;;12.73;82.01;95596.11;1716353;84;21022;-65
2022/08/02 01:48:55;;;;;;;2.40;2.20;;;;;;;12.64;82.55;95588.40;1716394;83;21023;-65
2022/08/02 01:54:14;;;;;;;3.40;2.30;;;;;;;12.37;82.83;95593.09;1716410;83;20968;-65
2022/08/02 01:56:43;;;;;;;3.17;2.37;;;;;;;12.37;82.92;95591.30;1717274;83;21071;-65
2022/08/02 01:59:13;;;;;;;3.85;2.30;;;;;;;12.34;82.83;95584.31;1724420;83;21070;-65
2022/08/02 02:01:42;;;;;;;2.40;2.20;;;;;;;12.33;83.78;95585.70;1724341;82;21027;-65
2022/08/02 02:04:09;;;;;;;2.83;2.35;;;;;;;12.37;83.60;95588.66;1724409;83;21520;-65
2022/08/02 02:06:37;;;;;;;3.15;2.85;;;;;;;12.31;84.51;95584.40;1724510;82;21027;-65
2022/08/02 02:09:05;;;;;;;3.98;2.75;;;;;;;12.32;84.83;95585.27;1724398;82;21022;-65
2022/08/02 02:11:33;;;;;;;2.85;2.65;;;;;;;12.30;85.09;95585.78;1724215;83;21068;-65
2022/08/02 02:14:02;;;;;;;3.55;2.35;;;;;;;12.29;85.02;95583.56;1724376;83;21090;-65
2022/08/02 02:16:30;;;;;;;3.75;2.80;;;;;;;12.27;84.99;95583.19;1724364;83;21049;-65
2022/08/02 02:19:01;;;;;;;6.08;2.42;;;;;;;12.23;84.63;95584.20;1724500;83;21054;-65
2022/08/02 02:21:28;;;;;;;3.30;2.30;;;;;;;12.17;84.70;95582.58;1724418;83;21043;-65
2022/08/02 02:23:55;;;;;;;3.62;2.62;;;;;;;12.16;85.07;95585.25;1724518;82;20975;-66
2022/08/02 02:26:23;;;;;;;5.45;2.60;;;;;;;12.17;84.99;95583.90;1724298;83;21018;-66
2022/08/02 02:28:52;;;;;;;2.40;2.20;;;;;;;12.14;84.71;95581.31;1724368;83;21035;-65
2022/08/02 02:31:20;;;;;;;3.95;2.50;;;;;;;12.09;84.66;95583.20;1724244;83;21134;-65
2022/08/02 02:34:09;;;;;;;5.03;2.70;;;;;;;12.05;84.28;95589.48;1695995;83;20971;-65
2022/08/02 02:36:40;;;;;;;4.08;2.22;;;;;;;12.06;84.10;95584.60;1723883;83;21103;-65
2022/08/02 02:39:10;;;;;;;3.62;2.77;;;;;;;12.06;84.03;95596.05;1723664;83;21078;-65
2022/08/02 02:41:37;;;;;;;2.70;2.50;;;;;;;11.97;83.74;95588.36;1724310;83;21026;-65
2022/08/02 02:44:09;;;;;;;2.83;2.37;;;;;;;12.04;84.32;95586.41;1724303;83;21010;-65
2022/08/02 02:46:36;;;;;;;2.60;2.40;;;;;;;12.11;84.16;95588.00;1724534;82;21059;-65
2022/08/02 02:49:03;;;;;;;2.10;1.77;;;;;;;12.11;83.83;95594.62;1724671;83;21027;-66
2022/08/02 02:51:30;;;;;;;2.02;1.90;;;;;;;12.09;83.51;95595.10;1724286;83;21053;-65
2022/08/02 02:53:57;;;;;;;2.08;1.92;;;;;;;12.02;83.42;95593.08;1724361;83;21090;-65
2022/08/02 02:56:25;;;;;;;2.27;2.08;;;;;;;11.95;83.60;95591.48;1724023;83;21161;-65
2022/08/02 02:58:53;;;;;;;5.10;2.30;;;;;;;11.93;83.52;95595.07;1723991;83;21062;-65
2022/08/02 03:01:28;;;;;;;3.47;2.30;;;;;;;11.87;82.83;95590.80;1724458;82;21015;-65
2022/08/02 03:03:59;;;;;;;6.67;2.30;;;;;;;11.79;83.69;95603.27;1724476;82;21011;-65
2022/08/02 03:06:29;;;;;;;4.10;2.17;;;;;;;11.76;83.28;95605.54;1724281;83;21099;-65
2022/08/02 03:08:56;;;;;;;4.62;3.40;;;;;;;11.76;83.81;95592.78;1724380;83;21003;-65
2022/08/02 03:11:28;;;;;;;3.65;2.12;;;;;;;11.77;83.78;95587.47;1724259;83;21018;-65
2022/08/02 03:13:53;;;;;;;3.22;2.27;;;;;;;11.77;83.67;95588.79;1724151;83;20999;-65
2022/08/02 03:16:20;;;;;;;3.35;2.15;;;;;;;11.82;84.16;95589.55;1724280;83;21051;-65
2022/08/02 03:18:46;;;;;;;5.80;2.17;;;;;;;11.78;84.55;95590.98;1724041;83;21035;-65
2022/08/02 03:21:13;;;;;;;2.40;2.20;;;;;;;11.77;83.95;95597.15;1724105;83;21106;-65
2022/08/02 03:23:42;;;;;;;2.60;2.10;;;;;;;11.79;84.15;95602.84;1724438;82;21465;-65
2022/08/02 03:26:09;;;;;;;6.12;2.25;;;;;;;11.85;83.88;95597.86;1724222;83;21038;-65
2022/08/02 03:28:36;;;;;;;3.42;2.40;;;;;;;11.89;83.57;95602.19;1724511;83;21027;-65
2022/08/02 03:31:03;;;;;;;4.05;2.25;;;;;;;11.97;83.35;95605.55;1724214;83;21035;-65
2022/08/02 03:33:32;;;;;;;2.15;1.85;;;;;;;11.95;82.61;95606.03;1724486;83;21022;-65
2022/08/02 03:36:07;;;;;;;5.78;2.30;;;;;;;11.98;83.42;95606.41;1724277;83;21055;-65
2022/08/02 03:38:35;;;;;;;5.28;2.33;;;;;;;11.93;82.93;95607.83;1723832;83;21007;-65
2022/08/02 03:41:03;;;;;;;4.20;2.25;;;;;;;11.89;82.37;95608.37;1724313;83;21588;-65
2022/08/02 03:43:31;;;;;;;2.20;2.00;;;;;;;11.72;82.43;95620.17;1724261;82;21054;-65
2022/08/02 03:45:59;;;;;;;2.30;2.10;;;;;;;11.62;82.46;95620.86;1724171;82;21552;-65
2022/08/02 03:48:29;;;;;;;3.87;1.98;;;;;;;11.59;83.48;95627.52;1724553;83;20983;-65
2022/08/02 03:50:56;;;;;;;2.75;2.17;;;;;;;11.61;83.69;95629.22;1724456;83;21030;-65
2022/08/02 03:53:24;;;;;;;2.50;2.30;;;;;;;11.69;84.33;95627.30;1724396;83;21030;-65
2022/08/02 03:55:51;;;;;;;2.00;1.80;;;;;;;11.81;84.13;95629.23;1724389;83;21568;-65
2022/08/02 03:58:22;;;;;;;2.20;2.00;;;;;;;11.93;84.03;95634.73;1720226;83;21364;-65
2022/08/02 04:00:52;;;;;;;2.20;2.00;;;;;;;12.01;83.61;95630.98;1716322;83;21576;-65
2022/08/02 04:03:19;;;;;;;2.10;1.98;;;;;;;12.10;83.68;95642.69;1716435;83;21022;-65
2022/08/02 04:05:45;;;;;;;2.35;2.15;;;;;;;12.27;83.68;95651.55;1716616;83;20992;-65
2022/08/02 04:08:12;;;;;;;2.37;2.00;;;;;;;12.42;83.54;95647.63;1716432;83;21057;-65
2022/08/02 04:13:28;;;;;;;2.00;1.80;;;;;;;12.48;83.35;95659.40;1716386;83;21023;-65
2022/08/02 04:16:00;;;;;;;2.42;1.98;;;;;;;12.59;83.29;95667.06;1716530;83;21003;-65
2022/08/02 04:18:32;;;;;;;2.62;2.12;;;;;;;12.65;82.85;95657.66;1716286;83;21594;-65
2022/08/02 04:21:01;;;;;;;3.27;2.10;;;;;;;12.68;83.28;95662.86;1716410;83;21027;-65
2022/08/02 04:23:31;;;;;;;2.37;2.10;;;;;;;12.78;83.29;95661.72;1716087;84;21148;-65
2022/08/02 04:25:59;;;;;;;2.17;1.98;;;;;;;12.91;83.39;95660.07;1716470;83;21018;-65
2022/08/02 04:28:28;;;;;;;2.37;1.70;;;;;;;12.95;83.46;95664.36;1716188;84;21019;-65
2022/08/02 04:30:57;;;;;;;3.22;2.08;;;;;;;12.96;83.39;95664.80;1716390;83;20955;-65
2022/08/02 04:33:24;;;;;;;5.00;4.00;;;;;;;13.12;83.72;95670.07;1716542;84;21011;-66
2022/08/02 04:35:51;;;;;;;7.30;5.53;;;;;;;13.18;81.81;95651.84;1716369;83;20992;-66
2022/08/02 04:38:18;;;;;;;3.58;2.98;;;;;;;13.32;82.31;95661.61;1716445;83;21508;-65
2022/08/02 04:40:54;;;;;;;4.53;3.30;;;;;;;13.48;81.95;95657.19;1716375;83;21039;-65
2022/08/02 04:43:22;;;;;;;4.03;3.62;;;;;;;13.57;81.81;95660.45;1716067;84;21019;-65
2022/08/02 04:45:54;;;;;;;3.00;2.70;;;;;;;13.70;81.39;95662.28;1716442;83;21019;-65
2022/08/02 04:48:22;;;;;;;3.27;2.85;;;;;;;13.76;80.93;95662.58;1716552;83;21055;-65
2022/08/02 04:50:51;;;;;;;3.05;2.77;;;;;;;13.85;81.39;95660.95;1716051;84;21790;-65
2022/08/02 04:53:17;;;;;;;5.97;2.60;;;;;;;13.94;81.39;95665.98;1716341;83;21019;-65
2022/08/02 04:55:45;;;;;;;3.65;2.60;;;;;;;14.03;81.54;95658.19;1716343;83;21035;-65
2022/08/02 04:58:13;;;;;;;3.15;2.27;;;;;;;14.13;81.48;95664.08;1718616;83;21019;-65
2022/08/02 05:00:40;;;;;;;2.90;2.42;;;;;;;14.18;80.14;95655.05;1724351;83;21015;-65
2022/08/02 05:03:07;;;;;;;2.92;2.05;;;;;;;14.13;79.81;95660.96;1724202;83;21529;-66
2022/08/02 05:05:34;;;;;;;5.50;2.27;;;;;;;14.17;79.63;95659.96;1724053;83;21034;-66
2022/08/02 05:08:01;;;;;;;5.70;2.77;;;;;;;14.20;79.74;95662.52;1724276;83;21023;-66
2022/08/02 05:10:28;;;;;;;5.00;2.58;;;;;;;14.31;80.19;95660.83;1724212;83;21082;-66
2022/08/02 05:12:55;;;;;;;3.12;2.60;;;;;;;14.45;80.37;95661.27;1724037;83;21039;-65
2022/08/02 05:15:22;;;;;;;3.35;2.40;;;;;;;14.58;80.80;95665.74;1724376;82;21054;-66
2022/08/02 05:17:48;;;;;;;2.90;2.22;;;;;;;14.66;79.93;95668.14;1723972;82;21556;-65
2022/08/02 05:20:17;;;;;;;4.00;2.22;;;;;;;14.76;79.32;95662.92;1724301;82;21566;-65
2022/08/02 05:22:44;;;;;;;1.95;1.85;;;;;;;14.95;78.02;95672.95;1724298;83;21054;-65
2022/08/02 05:25:11;;;;;;;2.22;2.02;;;;;;;15.04;77.53;95673.47;1724265;83;21477;-66
2022/08/02 05:27:37;;;;;;;2.30;2.08;;;;;;;15.04;77.53;95673.47;1724039;83;20994;-66
2022/08/02 05:30:06;;;;;;;4.83;2.08;;;;;;;15.15;77.27;95668.66;1724619;82;21007;-66
2022/08/02 05:32:33;;;;;;;3.42;1.98;;;;;;;15.27;76.46;95668.70;1724292;83;21039;-65
2022/08/02 05:35:00;;;;;;;2.55;2.33;;;;;;;15.37;76.39;95674.52;1724484;83;20959;-66
2022/08/02 05:37:27;;;;;;;4.25;2.02;;;;;;;15.55;77.15;95683.66;1724490;82;21046;-66
2022/08/02 05:39:54;;;;;;;2.67;2.30;;;;;;;15.71;76.11;95679.98;1724335;83;21001;-66
2022/08/02 05:42:21;;;;;;;3.47;2.10;;;;;;;15.87;75.03;95677.14;1724532;82;21508;-66
2022/08/02 05:44:48;;;;;;;2.70;2.20;;;;;;;16.00;75.24;95669.55;1724289;83;21066;-66
2022/08/02 05:47:15;;;;;;;3.72;2.70;;;;;;;16.23;76.22;95668.68;1724348;83;21508;-66
2022/08/02 05:49:41;;;;;;;5.12;3.20;;;;;;;16.44;76.42;95674.93;1724465;83;21046;-66
2022/08/02 05:52:16;;;;;;;5.10;3.33;;;;;;;16.67;76.46;95672.66;1724343;83;21034;-66
2022/08/02 05:55:06;;;;;;;6.15;3.50;;;;;;;16.84;76.35;95672.86;1724420;83;21018;-66
2022/08/02 05:57:46;;;;;;;15.15;4.33;;;;;;;16.99;76.29;95674.02;1724356;83;21524;-66
2022/08/02 06:00:15;;;;;;;5.65;2.95;;;;;;;17.19;75.67;95673.64;1723489;83;21051;-66
2022/08/02 06:02:56;;;;;;;4.50;3.02;;;;;;;17.25;73.34;95667.55;1724492;83;21480;-66
2022/08/02 06:05:26;;;;;;;5.33;3.67;;;;;;;17.41;74.57;95674.43;1724146;83;21090;-66
2022/08/02 06:07:55;;;;;;;4.08;3.27;;;;;;;17.62;73.15;95683.75;1724202;83;21038;-66
2022/08/02 06:10:22;;;;;;;7.83;3.25;;;;;;;17.79;71.71;95678.95;1724582;83;21062;-66
2022/08/02 06:13:10;;;;;;;7.00;3.47;;;;;;;17.95;69.52;95678.70;1724192;83;21508;-66
2022/08/02 06:15:39;;;;;;;3.98;3.62;;;;;;;18.09;68.47;95674.93;1724174;83;21042;-66
2022/08/02 06:18:07;;;;;;;11.57;3.25;;;;;;;18.28;69.04;95676.25;1724638;82;20987;-66
2022/08/02 06:20:35;;;;;;;11.88;3.72;;;;;;;18.45;68.76;95675.92;1724088;83;21034;-66
2022/08/02 06:23:07;;;;;;;5.62;3.77;;;;;;;18.59;67.16;95680.11;1724486;83;21034;-66
2022/08/02 06:25:36;;;;;;;11.08;3.50;;;;;;;18.68;66.18;95681.48;1724185;83;21039;-66
2022/08/02 06:28:05;;;;;;;6.62;3.80;;;;;;;18.79;64.46;95684.51;1724216;83;21035;-66
2022/08/02 06:30:33;;;;;;;5.47;3.40;;;;;;;18.89;64.54;95685.78;1724510;82;21023;-66
2022/08/02 06:33:00;;;;;;;8.53;3.83;;;;;;;18.95;63.12;95684.16;1724505;82;21006;-66
2022/08/02 06:35:34;;;;;;;8.08;3.70;;;;;;;19.00;62.68;95686.13;1724275;83;21023;-66
2022/08/02 06:38:02;;;;;;;3.93;3.33;;;;;;;19.08;62.94;95689.75;1723068;83;21027;-66
2022/08/02 06:40:34;;;;;;;8.78;3.87;;;;;;;19.16;61.88;95692.03;1724370;83;21003;-66
2022/08/02 06:43:55;;;;;;;4.85;3.12;;;;;;;19.24;62.86;95697.38;1723444;83;20999;-65
2022/08/02 06:46:22;;;;;;;5.30;3.65;;;;;;;19.30;61.35;95700.67;1724524;82;21007;-66
2022/08/02 06:48:49;;;;;;;3.80;3.40;;;;;;;19.39;61.85;95700.22;1724275;83;21038;-65
2022/08/02 06:51:15;;;;;;;4.20;3.58;;;;;;;19.43;61.27;95703.14;1724500;82;21027;-66
2022/08/02 06:53:43;;;;;;;5.75;3.40;;;;;;;19.49;61.13;95702.80;1695932;83;21071;-66
2022/08/02 06:56:10;;;;;;;8.28;3.58;;;;;;;19.57;61.42;95710.43;1724216;83;21022;-66
2022/08/02 06:58:37;;;;;;;4.12;3.20;;;;;;;19.63;61.71;95715.00;1724357;82;21003;-66
2022/08/02 07:01:06;;;;;;;4.20;3.67;;;;;;;19.70;60.09;95713.36;1724449;83;21025;-66
2022/08/02 07:03:36;;;;;;;4.58;3.30;;;;;;;19.81;61.26;95715.02;1724315;82;21054;-66
2022/08/02 07:06:04;;;;;;;9.60;3.58;;;;;;;19.92;60.88;95719.79;1724346;83;21058;-66
2022/08/02 07:08:34;;;;;;;7.47;3.52;;;;;;;20.05;61.47;95711.00;1724342;83;21070;-66
2022/08/02 07:11:02;;;;;;;6.33;3.15;;;;;;;20.22;61.56;95712.77;1724431;83;21006;-66
2022/08/02 07:13:29;;;;;;;5.67;3.50;;;;;;;20.38;61.16;95714.59;1724347;83;20995;-66
2022/08/02 07:15:56;;;;;;;4.10;3.67;;;;;;;20.45;60.01;95702.59;1724092;83;21079;-66
2022/08/02 07:18:25;;;;;;;7.55;3.45;;;;;;;20.51;59.31;95707.15;1724211;83;21042;-66
2022/08/02 07:20:51;;;;;;;19.37;3.60;;;;;;;20.53;58.60;95702.54;1724486;83;21042;-66
2022/08/02 07:23:18;;;;;;;7.40;3.17;;;;;;;20.59;58.67;95705.86;1724346;82;21497;-66
2022/08/02 07:25:47;;;;;;;4.12;3.37;;;;;;;20.67;58.80;95697.78;1724570;83;21038;-66
2022/08/02 07:28:15;;;;;;;5.60;3.22;;;;;;;20.81;59.36;95696.98;1724419;83;21031;-66
2022/08/02 07:30:42;;;;;;;7.35;4.03;;;;;;;20.86;57.76;95694.90;1724246;82;20975;-66
2022/08/02 07:33:09;;;;;;;4.45;4.03;;;;;;;20.96;58.22;95693.45;1724443;83;21572;-66
2022/08/02 07:35:36;;;;;;;4.12;3.12;;;;;;;21.11;58.68;95697.51;1724580;82;20975;-66
2022/08/02 07:38:03;;;;;;;4.87;4.10;;;;;;;21.24;58.46;95701.19;1724094;83;21047;-66
2022/08/02 07:40:30;;;;;;;4.28;3.87;;;;;;;21.33;56.76;95700.66;1724432;83;20971;-66
2022/08/02 07:42:57;;;;;;;4.25;3.85;;;;;;;21.43;56.60;95705.52;1724490;83;21476;-66
2022/08/02 07:45:25;;;;;;;7.42;3.70;;;;;;;21.50;56.46;95701.03;1724062;83;21051;-66
2022/08/02 07:47:52;;;;;;;5.70;3.12;;;;;;;21.61;57.09;95697.20;1724315;83;21575;-66
2022/08/02 07:50:21;;;;;;;15.30;3.72;;;;;;;21.73;56.33;95693.41;1724411;82;21077;-66
2022/08/02 07:52:48;;;;;;;5.40;3.08;;;;;;;21.83;56.45;95691.40;1724219;83;21505;-66
2022/08/02 07:55:17;;;;;;;3.30;3.10;;;;;;;21.86;52.31;95694.86;1724453;83;21010;-66
2022/08/02 07:57:44;;;;;;;5.25;3.37;;;;;;;21.83;52.22;95695.42;1724324;83;21596;-66
2022/08/02 08:00:13;;;;;;;5.97;3.40;;;;;;;21.88;53.43;95687.58;1717562;83;21039;-66
2022/08/02 08:02:40;;;;;;;4.55;2.92;;;;;;;21.96;52.98;95690.64;1716557;83;20995;-66
2022/08/02 08:05:08;;;;;;;4.12;2.72;;;;;;;22.05;52.34;95691.42;1716249;83;21489;-66
2022/08/02 08:07:35;;;;;;;5.20;3.40;;;;;;;22.19;52.08;95689.20;1716471;83;21067;-66
2022/08/02 08:10:04;;;;;;;3.20;3.00;;;;;;;22.24;52.31;95687.97;1716220;83;21039;-66
2022/08/02 08:12:31;;;;;;;4.17;3.27;;;;;;;22.38;52.71;95684.91;1716378;83;21035;-66
2022/08/02 08:14:57;;;;;;;3.08;2.70;;;;;;;22.45;51.18;95687.56;1716037;83;21107;-66
2022/08/02 08:17:25;;;;;;;4.03;3.15;;;;;;;22.49;49.36;95694.97;1716123;83;21094;-66
2022/08/02 08:19:52;;;;;;;3.00;2.80;;;;;;;22.56;50.29;95685.55;1716272;83;21027;-66
2022/08/02 08:22:20;;;;;;;5.20;3.30;;;;;;;22.62;50.34;95691.86;1716229;84;21063;-66
2022/08/02 08:24:47;;;;;;;8.05;3.20;;;;;;;22.70;50.10;95692.22;1716475;84;20972;-66
2022/08/02 08:27:14;;;;;;;5.03;3.27;;;;;;;22.75;50.08;95697.31;1716320;83;21525;-66
2022/08/02 08:29:42;;;;;;;3.90;3.02;;;;;;;22.87;49.57;95696.02;1716293;83;21051;-66
2022/08/02 08:32:09;;;;;;;6.10;3.50;;;;;;;22.94;49.53;95696.49;1716450;83;21031;-66
2022/08/02 08:34:36;;;;;;;4.10;3.00;;;;;;;23.07;49.61;95697.92;1716297;84;20984;-66
2022/08/02 08:37:02;;;;;;;4.05;3.20;;;;;;;23.18;49.61;95698.54;1716439;83;21050;-66
2022/08/02 08:39:29;;;;;;;5.00;4.40;;;;;;;23.27;48.27;95697.94;1716561;83;21011;-66
2022/08/02 08:41:56;;;;;;;6.58;4.22;;;;;;;23.27;47.72;95696.09;1716180;83;21019;-66
2022/08/02 08:44:23;;;;;;;4.75;3.52;;;;;;;23.27;48.04;95697.45;1716315;83;20995;-66
2022/08/02 08:46:50;;;;;;;3.22;3.00;;;;;;;23.32;48.07;95694.45;1716446;83;21027;-66
2022/08/02 08:49:38;;;;;;;3.92;3.12;;;;;;;23.46;46.61;95699.77;1716518;83;21023;-66
2022/08/02 08:52:06;;;;;;;4.35;3.12;;;;;;;23.58;47.91;95700.74;1705047;84;21074;-66
2022/08/02 08:54:35;;;;;;;6.20;3.33;;;;;;;23.74;48.34;95697.91;1716290;83;21035;-66
2022/08/02 08:57:06;;;;;;;12.35;3.60;;;;;;;23.84;46.22;95700.34;1716420;83;21481;-66
2022/08/02 08:59:33;;;;;;;4.83;2.98;;;;;;;23.90;46.04;95701.74;1719328;83;21067;-66
2022/08/02 09:02:01;;;;;;;5.28;3.60;;;;;;;23.83;47.51;95696.39;1724187;83;20992;-66
2022/08/02 09:04:28;;;;;;;5.10;3.45;;;;;;;24.03;46.92;95701.25;1724400;83;21142;-66
2022/08/02 09:06:56;;;;;;;3.20;2.90;;;;;;;24.14;45.08;95700.48;1724205;83;21149;-66
2022/08/02 09:09:23;;;;;;;3.20;2.80;;;;;;;24.13;43.09;95699.63;1724421;83;21031;-66
2022/08/02 09:11:49;;;;;;;3.58;2.60;;;;;;;24.21;39.74;95698.23;1724383;83;21023;-66
2022/08/02 09:14:28;;;;;;;4.03;2.35;;;;;;;24.23;40.14;95695.80;1696042;83;21105;-66
2022/08/02 09:17:08;;;;;;;3.85;2.70;;;;;;;24.29;40.70;95687.29;1724367;83;21524;-66
2022/08/02 09:19:35;;;;;;;3.02;2.75;;;;;;;24.44;41.33;95687.14;1724520;82;20979;-66
2022/08/02 09:22:13;;;;;;;3.17;2.87;;;;;;;24.50;41.62;95679.51;1724225;83;21007;-66
2022/08/02 09:24:45;;;;;;;2.47;2.12;;;;;;;24.57;39.78;95679.44;1724683;83;21018;-66
2022/08/02 09:27:18;;;;;;;4.05;2.40;;;;;;;24.66;39.48;95675.69;1724473;83;21548;-66
2022/08/02 09:29:52;;;;;;;3.10;2.80;;;;;;;24.76;39.66;95678.94;1724118;83;21058;-66
2022/08/02 09:32:19;;;;;;;4.35;3.00;;;;;;;24.75;39.57;95676.38;1724438;83;21018;-66
2022/08/02 09:34:53;;;;;;;4.90;2.80;;;;;;;24.79;39.83;95675.16;1724405;83;21078;-66
2022/08/02 09:37:30;;;;;;;3.00;2.70;;;;;;;24.91;40.47;95674.75;1724453;82;21130;-66
2022/08/02 09:39:59;;;;;;;3.98;3.22;;;;;;;25.11;40.13;95663.81;1724531;83;20987;-66
2022/08/02 09:42:28;;;;;;;3.08;2.80;;;;;;;25.28;40.55;95666.13;1724579;83;21006;-66
2022/08/02 09:44:59;;;;;;;7.58;2.90;;;;;;;25.38;40.55;95666.30;1724184;83;21062;-66
2022/08/02 09:47:27;;;;;;;3.20;2.95;;;;;;;25.57;41.11;95669.28;1724485;83;21006;-66
2022/08/02 09:49:56;;;;;;;3.98;3.15;;;;;;;25.62;39.60;95658.98;1724419;83;21532;-66
2022/08/02 09:52:29;;;;;;;3.08;2.77;;;;;;;25.53;39.23;95658.36;1724401;83;21123;-66
2022/08/02 09:55:05;;;;;;;2.65;2.40;;;;;;;25.61;41.52;95659.13;1724562;83;21010;-66
2022/08/02 09:57:37;;;;;;;2.67;2.47;;;;;;;25.77;39.74;95665.05;1724405;83;21031;-66
2022/08/02 10:00:10;;;;;;;4.50;2.42;;;;;;;25.77;38.14;95662.34;1724332;83;21027;-66
2022/08/02 10:02:38;;;;;;;2.10;1.90;;;;;;;25.92;38.87;95659.45;1724437;82;21050;-66
2022/08/02 10:05:06;;;;;;;2.55;2.30;;;;;;;25.96;38.04;95657.75;1724281;83;20999;-66
2022/08/02 10:07:34;;;;;;;3.75;2.47;;;;;;;26.11;37.80;95655.68;1724474;83;21513;-66
2022/08/02 10:10:01;;;;;;;2.90;2.60;;;;;;;26.25;39.22;95659.97;1724368;83;20988;-66
2022/08/02 10:12:28;;;;;;;3.15;2.37;;;;;;;26.47;38.39;95644.23;1724309;82;21034;-66
2022/08/02 10:14:55;;;;;;;3.37;2.20;;;;;;;26.61;37.11;95650.78;1724200;83;21006;-66
2022/08/02 10:17:22;;;;;;;2.55;2.35;;;;;;;26.65;37.37;95645.47;1724365;82;21015;-66
2022/08/02 10:19:49;;;;;;;2.30;2.12;;;;;;;26.59;37.69;95643.27;1724350;83;21033;-66
2022/08/02 10:22:16;;;;;;;2.35;2.15;;;;;;;26.48;37.36;95638.68;1724467;83;21027;-66
2022/08/02 10:24:44;;;;;;;3.58;1.98;;;;;;;26.66;37.52;95636.84;1724508;82;20991;-66
2022/08/02 10:27:20;;;;;;;2.33;1.90;;;;;;;26.80;36.48;95628.95;1695754;83;21457;-66
2022/08/02 10:29:49;;;;;;;2.45;2.10;;;;;;;26.82;36.17;95637.82;1724329;82;21034;-66
2022/08/02 10:32:26;;;;;;;5.55;2.10;;;;;;;26.87;35.81;95632.38;1724392;83;21058;-66
2022/08/02 10:35:15;;;;;;;2.35;2.15;;;;;;;26.93;36.51;95632.36;1724385;83;20991;-66
2022/08/02 10:37:45;;;;;;;6.72;2.10;;;;;;;26.86;37.05;95631.14;1724469;82;21520;-66
2022/08/02 10:40:29;;;;;;;2.40;2.00;;;;;;;26.87;36.20;95622.91;1724427;83;21003;-66
2022/08/02 10:42:59;;;;;;;3.12;1.90;;;;;;;27.08;36.34;95627.52;1722681;83;21107;-66
2022/08/02 10:45:25;;;;;;;3.00;2.10;;;;;;;27.18;34.91;95631.20;1724448;82;21034;-66
2022/08/02 10:48:14;;;;;;;2.67;1.92;;;;;;;27.33;35.79;95629.05;1724119;83;21035;-66
2022/08/02 10:50:51;;;;;;;3.15;2.12;;;;;;;27.22;35.39;95623.69;1724524;83;21026;-66
2022/08/02 10:53:31;;;;;;;2.55;2.30;;;;;;;27.27;35.71;95629.58;1724355;83;21070;-66
2022/08/02 10:56:04;;;;;;;2.45;2.25;;;;;;;27.28;35.68;95628.58;1724592;83;21011;-66
2022/08/02 10:58:33;;;;;;;3.65;1.95;;;;;;;27.33;36.46;95624.98;1724382;83;21022;-66
2022/08/02 11:01:28;;;;;;;2.77;1.67;;;;;;;27.34;35.00;95637.52;1724102;83;21106;-66
2022/08/02 11:04:00;;;;;;;2.58;1.90;;;;;;;27.49;34.57;95623.17;1667220;86;21005;-66
2022/08/02 11:06:27;;;;;;;3.15;1.82;;;;;;;27.74;34.30;95627.34;1709278;83;20994;-66
2022/08/02 11:09:28;;;;;;;3.35;1.82;;;;;;;27.63;33.03;95618.79;1723950;83;21003;-66
2022/08/02 11:12:04;;;;;;;2.27;1.30;;;;;;;27.73;34.90;95623.78;1724197;83;20980;-66
2022/08/02 11:14:34;;;;;;;1.77;1.60;;;;;;;27.80;32.37;95626.83;1719844;83;21035;-66
2022/08/02 11:17:07;;;;;;;2.10;1.80;;;;;;;27.95;33.35;95620.09;1723453;83;21050;-66
2022/08/02 11:19:55;;;;;;;2.05;1.70;;;;;;;28.03;33.44;95624.34;1722120;83;21034;-66
2022/08/02 11:22:22;;;;;;;3.45;2.47;;;;;;;28.16;32.99;95624.13;1724264;82;21556;-66
2022/08/02 11:24:48;;;;;;;2.25;1.98;;;;;;;28.26;33.95;95616.88;1724531;83;21022;-66
2022/08/02 11:27:20;;;;;;;1.65;1.55;;;;;;;28.32;32.51;95617.33;1724326;83;21051;-66
2022/08/02 11:29:49;;;;;;;2.30;1.70;;;;;;;28.26;32.14;95617.38;1724457;83;21002;-66
2022/08/02 11:32:23;;;;;;;3.17;1.80;;;;;;;28.38;32.53;95622.23;1724347;83;21023;-67
2022/08/02 11:34:52;;;;;;;2.20;2.00;;;;;;;28.39;33.99;95616.64;1724400;82;21070;-67
2022/08/02 11:37:36;;;;;;;3.50;1.65;;;;;;;28.55;34.83;95615.30;1724090;83;21074;-66
2022/08/02 11:40:13;;;;;;;3.92;2.00;;;;;;;28.66;33.30;95613.84;1724482;83;21007;-66
2022/08/02 11:42:44;;;;;;;2.08;1.95;;;;;;;28.74;33.67;95620.79;1724239;83;21027;-67
2022/08/02 11:45:14;;;;;;;3.50;1.80;;;;;;;28.85;32.56;95614.38;1723879;83;21528;-66
2022/08/02 11:47:53;;;;;;;3.00;2.00;;;;;;;28.91;33.42;95620.62;1724336;82;21023;-66
2022/08/02 11:50:24;;;;;;;3.10;1.60;;;;;;;28.81;34.38;95621.10;1724210;83;21512;-66
2022/08/02 11:52:56;;;;;;;3.20;1.95;;;;;;;28.87;32.00;95621.89;1724709;83;21026;-67